createdAt,value
2022-10-03T00:30:18.485Z,0
2022-10-03T00:30:58.915Z,0
2022-10-03T00:31:39.768Z,0
2022-10-03T00:32:19.846Z,0
2022-10-03T00:33:00.310Z,0
2022-10-03T00:33:40.785Z,0
2022-10-03T00:34:21.280Z,0
2022-10-03T00:35:01.765Z,0
2022-10-03T00:35:42.254Z,0
2022-10-03T00:36:22.722Z,0
2022-10-03T00:43:48.227Z,0
2022-10-03T00:44:28.737Z,0
2022-10-03T00:45:09.176Z,0
2022-10-03T00:45:49.806Z,0
2022-10-03T00:46:30.249Z,0
2022-10-03T00:47:10.657Z,0
2022-10-03T00:47:51.165Z,0
2022-10-03T00:48:31.653Z,0
2022-10-03T00:49:12.129Z,0
2022-10-03T00:49:52.638Z,0
2022-10-03T00:50:33.099Z,0
2022-10-03T00:57:18.219Z,0
2022-10-03T00:57:58.704Z,0
2022-10-03T00:58:39.302Z,0
2022-10-03T00:59:19.878Z,0
2022-10-03T01:00:00.405Z,0
2022-10-03T01:00:40.753Z,0
2022-10-03T01:01:21.434Z,0
2022-10-03T01:02:01.908Z,0
2022-10-03T01:02:42.318Z,0
2022-10-03T01:03:23.007Z,0
2022-10-03T01:10:07.963Z,0
2022-10-03T01:10:48.456Z,0
2022-10-03T01:11:28.967Z,0
2022-10-03T01:12:09.688Z,0
2022-10-03T01:12:50.049Z,0
2022-10-03T01:13:30.657Z,0
2022-10-03T01:14:11.186Z,0
2022-10-03T01:14:51.699Z,0
2022-10-03T01:15:32.253Z,0
2022-10-03T01:16:53.254Z,0
2022-10-03T01:22:39.684Z,0
2022-10-03T01:25:07.953Z,0
2022-10-03T01:25:48.338Z,0
2022-10-03T01:26:28.827Z,0
2022-10-03T01:27:09.339Z,0
2022-10-03T01:31:12.287Z,0
2022-10-03T01:31:52.773Z,0
2022-10-03T01:32:33.231Z,0
2022-10-03T01:33:13.708Z,0
2022-10-03T01:33:54.202Z,0
2022-10-03T01:34:34.769Z,0
2022-10-03T01:35:15.182Z,0
2022-10-03T01:35:55.661Z,0
2022-10-03T01:36:36.135Z,0
2022-10-03T01:37:16.669Z,0
2022-10-03T01:37:57.137Z,0
2022-10-03T01:44:42.068Z,0
2022-10-03T01:45:22.501Z,0
2022-10-03T01:46:02.972Z,0
2022-10-03T01:46:43.550Z,0
2022-10-03T01:47:24.021Z,0
2022-10-03T01:48:04.633Z,0
2022-10-03T01:48:44.950Z,0
2022-10-03T01:49:25.421Z,0
2022-10-03T01:50:05.956Z,0
2022-10-03T01:50:46.419Z,0
2022-10-03T01:58:52.224Z,0
2022-10-03T01:59:32.685Z,0
2022-10-03T02:00:13.230Z,0
2022-10-03T02:00:53.658Z,0
2022-10-03T02:01:34.147Z,0
2022-10-03T02:02:14.651Z,0
2022-10-03T02:02:55.141Z,0
2022-10-03T02:03:36.400Z,0
2022-10-03T02:04:16.080Z,0
2022-10-03T02:04:56.620Z,0
2022-10-03T02:05:37.071Z,0
2022-10-03T02:12:22.044Z,0
2022-10-03T02:13:02.527Z,0
2022-10-03T02:13:43.065Z,0
2022-10-03T02:14:23.600Z,0
2022-10-03T02:15:04.062Z,0
2022-10-03T02:15:44.565Z,0
2022-10-03T02:16:25.130Z,0
2022-10-03T02:17:05.530Z,0
2022-10-03T02:17:46.027Z,0
2022-10-03T02:18:26.438Z,0
2022-10-03T02:19:07.100Z,0
2022-10-03T02:26:32.231Z,0
2022-10-03T02:27:12.790Z,0
2022-10-03T02:27:53.335Z,0
2022-10-03T02:28:33.748Z,0
2022-10-03T02:29:14.230Z,0
2022-10-03T02:29:54.747Z,0
2022-10-03T02:30:35.196Z,0
2022-10-03T02:31:15.712Z,0
2022-10-03T02:31:56.171Z,0
2022-10-03T02:32:36.623Z,0
2022-10-03T02:33:17.092Z,0
2022-10-03T02:40:42.423Z,0
2022-10-03T02:41:22.879Z,0
2022-10-03T02:42:03.337Z,0
2022-10-03T02:42:43.880Z,0
2022-10-03T02:43:24.358Z,0
2022-10-03T02:44:04.814Z,0
2022-10-03T02:44:45.306Z,0
2022-10-03T02:45:25.871Z,0
2022-10-03T02:46:06.381Z,0
2022-10-03T02:46:46.787Z,0
2022-10-03T02:47:27.317Z,0
2022-10-03T02:54:12.201Z,0
2022-10-03T02:54:52.664Z,0
2022-10-03T02:55:33.156Z,0
2022-10-03T02:56:13.650Z,0
2022-10-03T02:56:54.193Z,0
2022-10-03T02:57:34.660Z,0
2022-10-03T02:58:15.176Z,0
2022-10-03T02:58:55.653Z,0
2022-10-03T02:59:36.190Z,0
2022-10-03T03:00:16.660Z,0
2022-10-03T03:00:57.208Z,0
2022-10-03T03:08:22.432Z,0
2022-10-03T03:09:02.886Z,0
2022-10-03T03:09:43.374Z,0
2022-10-03T03:10:23.822Z,0
2022-10-03T03:11:04.300Z,0
2022-10-03T03:11:44.772Z,0
2022-10-03T03:12:25.257Z,0
2022-10-03T03:13:06.017Z,0
2022-10-03T03:13:46.475Z,0
2022-10-03T03:14:26.929Z,0
2022-10-03T03:21:28.414Z,0
2022-10-03T03:22:08.934Z,0
2022-10-03T03:22:49.380Z,0
2022-10-03T03:23:29.940Z,0
2022-10-03T03:24:10.454Z,0
2022-10-03T03:24:50.922Z,0
2022-10-03T03:25:31.398Z,0
2022-10-03T03:26:11.917Z,0
2022-10-03T03:26:52.374Z,0
2022-10-03T03:27:32.815Z,0
2022-10-03T03:28:13.378Z,0
2022-10-03T03:34:58.193Z,0
2022-10-03T03:35:38.726Z,0
2022-10-03T03:36:19.160Z,0
2022-10-03T03:36:59.738Z,0
2022-10-03T03:37:40.124Z,0
2022-10-03T03:38:20.590Z,0
2022-10-03T03:39:01.090Z,0
2022-10-03T03:39:41.610Z,0
2022-10-03T03:40:22.103Z,0
2022-10-03T03:41:02.621Z,0
2022-10-03T03:41:43.093Z,0
2022-10-03T03:49:08.497Z,0
2022-10-03T03:49:48.909Z,0
2022-10-03T03:50:29.387Z,0
2022-10-03T03:51:10.765Z,0
2022-10-03T03:51:51.222Z,0
2022-10-03T03:52:31.865Z,0
2022-10-03T03:53:12.248Z,0
2022-10-03T03:53:52.746Z,0
2022-10-03T03:54:33.260Z,0
2022-10-03T04:01:18.283Z,0
2022-10-03T04:01:58.776Z,0
2022-10-03T04:02:39.199Z,0
2022-10-03T04:03:19.624Z,0
2022-10-03T04:04:00.114Z,0
2022-10-03T04:04:40.592Z,0
2022-10-03T04:05:21.124Z,0
2022-10-03T04:06:01.525Z,0
2022-10-03T04:06:43.028Z,0
2022-10-03T04:12:48.273Z,0
2022-10-03T04:13:28.797Z,0
2022-10-03T04:14:09.210Z,0
2022-10-03T04:17:38.714Z,0
2022-10-03T04:18:19.194Z,0
2022-10-03T04:18:59.636Z,0
2022-10-03T04:19:40.086Z,0
2022-10-03T04:21:01.114Z,0
2022-10-03T04:21:42.015Z,0
2022-10-03T04:22:22.005Z,0
2022-10-03T04:23:42.964Z,0
2022-10-03T04:24:23.410Z,0
2022-10-03T04:32:45.845Z,0
2022-10-03T04:33:26.208Z,0
2022-10-03T04:34:06.674Z,0
2022-10-03T04:34:47.135Z,0
2022-10-03T04:35:27.667Z,0
2022-10-03T04:36:08.124Z,0
2022-10-03T04:36:48.585Z,0
2022-10-03T04:37:29.121Z,0
2022-10-03T04:38:09.543Z,0
2022-10-03T04:38:50.094Z,0
2022-10-03T04:46:55.980Z,0
2022-10-03T04:47:36.405Z,0
2022-10-03T04:48:16.937Z,0
2022-10-03T04:48:57.414Z,0
2022-10-03T04:49:37.920Z,0
2022-10-03T04:50:18.375Z,0
2022-10-03T04:50:58.867Z,0
2022-10-03T04:51:39.714Z,0
2022-10-03T04:52:19.796Z,0
2022-10-03T04:53:00.279Z,0
2022-10-03T04:53:40.778Z,0
2022-10-03T05:01:06.053Z,0
2022-10-03T05:01:46.512Z,0
2022-10-03T05:02:27.026Z,0
2022-10-03T05:03:07.392Z,0
2022-10-03T05:03:47.903Z,0
2022-10-03T05:04:28.346Z,0
2022-10-03T05:05:08.860Z,0
2022-10-03T05:05:49.359Z,0
2022-10-03T05:06:29.822Z,0
2022-10-03T05:07:10.275Z,0
2022-10-03T05:07:50.756Z,0
2022-10-03T05:15:16.051Z,4
2022-10-03T05:15:56.522Z,4
2022-10-03T05:16:37.046Z,4
2022-10-03T05:17:17.483Z,4
2022-10-03T05:17:57.970Z,4
2022-10-03T05:18:38.433Z,4
2022-10-03T05:19:18.917Z,8
2022-10-03T05:19:59.403Z,8
2022-10-03T05:20:39.893Z,12
2022-10-03T05:21:20.413Z,12
2022-10-03T05:22:00.848Z,12
2022-10-03T05:28:45.677Z,32
2022-10-03T05:29:26.189Z,36
2022-10-03T05:30:06.642Z,40
2022-10-03T05:30:47.086Z,40
2022-10-03T05:31:27.706Z,44
2022-10-03T05:32:08.082Z,48
2022-10-03T05:32:48.510Z,52
2022-10-03T05:33:28.964Z,56
2022-10-03T05:34:09.444Z,60
2022-10-03T05:34:49.897Z,64
2022-10-03T05:35:30.395Z,68
2022-10-03T05:36:10.895Z,72
2022-10-03T05:42:32.094Z,120
2022-10-03T05:43:12.457Z,128
2022-10-03T05:43:53.001Z,132
2022-10-03T05:44:33.435Z,140
2022-10-03T05:45:13.973Z,148
2022-10-03T05:45:54.645Z,152
2022-10-03T05:46:34.978Z,160
2022-10-03T05:47:15.462Z,168
2022-10-03T05:47:55.894Z,180
2022-10-03T05:48:36.397Z,188
2022-10-03T05:49:16.890Z,204
2022-10-03T06:32:02.374Z,5564
2022-10-03T06:32:43.186Z,5800
2022-10-03T06:33:24.169Z,5968
2022-10-03T06:34:05.129Z,5420
2022-10-03T06:34:46.165Z,6072
2022-10-03T06:35:27.094Z,6456
2022-10-03T06:39:06.663Z,6848
2022-10-03T06:39:47.169Z,7024
2022-10-03T06:40:27.682Z,7140
2022-10-03T06:41:08.201Z,7256
2022-10-03T06:41:48.705Z,7432
2022-10-03T06:42:29.158Z,7532
2022-10-03T06:43:09.633Z,7724
2022-10-03T06:43:50.130Z,7924
2022-10-03T06:44:30.579Z,7952
2022-10-03T06:45:11.036Z,8116
2022-10-03T06:45:51.554Z,7956
2022-10-03T06:51:56.578Z,7752
2022-10-03T06:52:37.038Z,7452
2022-10-03T06:53:17.526Z,7288
2022-10-03T06:53:58.044Z,7276
2022-10-03T06:54:38.555Z,7188
2022-10-03T06:55:19.056Z,7192
2022-10-03T06:55:59.530Z,7312
2022-10-03T06:56:40.033Z,7156
2022-10-03T06:57:20.609Z,6760
2022-10-03T06:58:01.020Z,6248
2022-10-03T06:58:41.520Z,5832
2022-10-03T07:05:26.943Z,2480
2022-10-03T07:06:07.467Z,4504
2022-10-03T07:06:47.962Z,5000
2022-10-03T07:07:28.442Z,4908
2022-10-03T07:08:08.877Z,4832
2022-10-03T07:08:49.376Z,4736
2022-10-03T07:09:29.834Z,4368
2022-10-03T07:10:10.257Z,3716
2022-10-03T07:10:50.741Z,4388
2022-10-03T07:11:31.263Z,4664
2022-10-03T07:12:14.239Z,4884
2022-10-03T07:18:56.625Z,4432
2022-10-03T07:19:37.924Z,4504
2022-10-03T07:20:18.398Z,4492
2022-10-03T07:20:59.002Z,4428
2022-10-03T07:21:39.712Z,4344
2022-10-03T07:22:20.005Z,4304
2022-10-03T07:23:00.559Z,4260
2022-10-03T07:23:41.044Z,4160
2022-10-03T07:24:21.618Z,4076
2022-10-03T07:31:06.695Z,3532
2022-10-03T07:31:47.178Z,3412
2022-10-03T07:32:27.651Z,3396
2022-10-03T07:33:08.135Z,3356
2022-10-03T07:33:48.675Z,3312
2022-10-03T07:34:29.169Z,3200
2022-10-03T07:35:09.709Z,3104
2022-10-03T07:35:50.182Z,3040
2022-10-03T07:36:30.692Z,2996
2022-10-03T07:37:11.204Z,2728
2022-10-03T07:44:36.642Z,2376
2022-10-03T07:45:17.180Z,2360
2022-10-03T07:45:57.683Z,2372
2022-10-03T07:46:38.544Z,2452
2022-10-03T07:47:19.047Z,2376
2022-10-03T07:47:59.471Z,2288
2022-10-03T07:48:39.926Z,2268
2022-10-03T07:49:20.692Z,2044
2022-10-03T07:50:00.958Z,1984
2022-10-03T07:50:41.373Z,1856
2022-10-03T07:51:21.885Z,1908
2022-10-03T07:57:27.012Z,1572
2022-10-03T07:58:07.496Z,1792
2022-10-03T07:58:47.990Z,1684
2022-10-03T07:59:28.452Z,1608
2022-10-03T08:00:08.986Z,1612
2022-10-03T08:00:49.513Z,1700
2022-10-03T08:01:29.948Z,1808
2022-10-03T08:02:10.514Z,1960
2022-10-03T08:02:51.062Z,1868
2022-10-03T08:03:31.573Z,1868
2022-10-03T08:10:16.640Z,1816
2022-10-03T08:10:57.169Z,1744
2022-10-03T08:11:37.854Z,1892
2022-10-03T08:12:18.079Z,1968
2022-10-03T08:12:58.568Z,2028
2022-10-03T08:13:39.034Z,2048
2022-10-03T08:14:19.537Z,1740
2022-10-03T08:15:00.036Z,1656
2022-10-03T08:15:40.571Z,1596
2022-10-03T08:16:21.126Z,1664
2022-10-03T08:17:01.624Z,1616
2022-10-03T08:23:46.722Z,1900
2022-10-03T08:24:27.284Z,1836
2022-10-03T08:25:07.691Z,1928
2022-10-03T08:25:48.199Z,2096
2022-10-03T08:26:28.687Z,2004
2022-10-03T08:27:09.155Z,2040
2022-10-03T08:27:49.735Z,1880
2022-10-03T08:28:30.314Z,1980
2022-10-03T08:29:10.710Z,1872
2022-10-03T08:35:56.758Z,1876
2022-10-03T08:36:37.297Z,1924
2022-10-03T08:37:17.816Z,1992
2022-10-03T08:37:58.260Z,2116
2022-10-03T08:38:38.760Z,1972
2022-10-03T08:39:19.234Z,1896
2022-10-03T08:39:59.722Z,1876
2022-10-03T08:41:20.732Z,1840
2022-10-03T08:42:01.236Z,1936
2022-10-03T08:42:41.743Z,1940
2022-10-03T08:49:27.142Z,1916
2022-10-03T08:50:07.646Z,1972
2022-10-03T08:50:48.093Z,1980
2022-10-03T08:51:28.637Z,1996
2022-10-03T08:52:09.243Z,1968
2022-10-03T08:52:49.751Z,1956
2022-10-03T08:53:30.906Z,1968
2022-10-03T08:54:11.401Z,1976
2022-10-03T08:54:51.872Z,2004
2022-10-03T09:00:56.942Z,2000
2022-10-03T09:01:37.830Z,2016
2022-10-03T09:02:18.014Z,2032
2022-10-03T09:03:28.551Z,2044
2022-10-03T09:03:42.731Z,2068
2022-10-03T09:04:19.440Z,2084
2022-10-03T09:04:59.924Z,2096
2022-10-03T09:05:40.427Z,2080
2022-10-03T09:06:20.902Z,2072
2022-10-03T09:07:18.237Z,1972
2022-10-03T09:12:42.114Z,1772
2022-10-03T09:13:22.592Z,1792
2022-10-03T09:14:03.151Z,1812
2022-10-03T09:14:43.627Z,1796
2022-10-03T09:15:24.069Z,1784
2022-10-03T09:16:04.618Z,1840
2022-10-03T09:16:45.325Z,1884
2022-10-03T09:17:25.649Z,1932
2022-10-03T09:18:06.066Z,2048
2022-10-03T09:18:46.521Z,2044
2022-10-03T09:19:26.995Z,1892
2022-10-03T09:26:12.096Z,2152
2022-10-03T09:26:52.622Z,2068
2022-10-03T09:27:33.106Z,2016
2022-10-03T09:28:13.655Z,2000
2022-10-03T09:28:54.127Z,2068
2022-10-03T09:29:34.603Z,2068
2022-10-03T09:30:15.100Z,2020
2022-10-03T09:30:55.693Z,2000
2022-10-03T09:31:36.261Z,1980
2022-10-03T09:32:16.646Z,1988
2022-10-03T09:39:42.285Z,2364
2022-10-03T09:40:22.832Z,2280
2022-10-03T09:41:03.290Z,2244
2022-10-03T09:41:43.810Z,2244
2022-10-03T09:42:24.312Z,2280
2022-10-03T09:43:04.887Z,2108
2022-10-03T09:43:45.360Z,2100
2022-10-03T09:44:25.830Z,2088
2022-10-03T09:45:06.428Z,2144
2022-10-03T09:45:47.016Z,2172
2022-10-03T09:48:26.437Z,2076
2022-10-03T09:49:06.954Z,1984
2022-10-03T09:49:47.460Z,1956
2022-10-03T09:50:27.923Z,1932
2022-10-03T09:51:08.376Z,1944
2022-10-03T09:51:48.986Z,1984
2022-10-03T09:52:29.457Z,2028
2022-10-03T09:53:10.048Z,2092
2022-10-03T09:53:50.523Z,2132
2022-10-03T10:00:35.545Z,1804
2022-10-03T10:01:15.946Z,1812
2022-10-03T10:01:56.542Z,1824
2022-10-03T10:02:36.935Z,1876
2022-10-03T10:03:17.418Z,1868
2022-10-03T10:03:58.309Z,1896
2022-10-03T10:04:56.271Z,1836
2022-10-03T10:05:22.840Z,1808
2022-10-03T10:06:45.985Z,1948
2022-10-03T10:07:26.516Z,1912
2022-10-03T10:08:07.120Z,1976
2022-10-03T10:08:48.625Z,1980
2022-10-03T10:09:28.634Z,1932
2022-10-03T10:10:09.415Z,2020
2022-10-03T10:10:49.869Z,1924
2022-10-03T10:11:34.338Z,1980
2022-10-03T10:14:55.672Z,2060
2022-10-03T10:15:36.124Z,2056
2022-10-03T10:16:17.068Z,2068
2022-10-03T10:16:57.802Z,2116
2022-10-03T10:17:40.088Z,2136
2022-10-03T10:18:20.274Z,1860
2022-10-03T10:21:06.072Z,1476
2022-10-03T10:21:47.962Z,1508
2022-10-03T10:22:31.121Z,1540
2022-10-03T10:27:16.313Z,1632
2022-10-03T10:27:56.748Z,1976
2022-10-03T10:28:38.538Z,1984
2022-10-03T10:29:21.001Z,2100
2022-10-03T10:30:45.436Z,1768
2022-10-03T10:31:27.200Z,1736
2022-10-03T10:32:07.707Z,2064
2022-10-03T10:32:48.382Z,2008
2022-10-03T10:33:30.036Z,2056
2022-10-03T10:37:36.403Z,1860
2022-10-03T10:38:17.513Z,1760
2022-10-03T10:38:57.963Z,1620
2022-10-03T10:39:38.492Z,1516
2022-10-03T10:40:19.178Z,1360
2022-10-03T10:41:03.455Z,1472
2022-10-03T10:41:40.547Z,1392
2022-10-03T10:44:26.476Z,1916
2022-10-03T10:45:08.608Z,1708
2022-10-03T10:45:51.082Z,1692
2022-10-03T10:52:35.349Z,1604
2022-10-03T10:53:15.859Z,1572
2022-10-03T10:53:56.438Z,1508
2022-10-03T10:54:37.471Z,1508
2022-10-03T10:55:17.865Z,1528
2022-10-03T10:55:58.366Z,1608
2022-10-03T10:56:39.251Z,1676
2022-10-03T10:57:19.445Z,1724
2022-10-03T10:58:00.069Z,1972
2022-10-03T10:58:40.471Z,1676
2022-10-03T11:04:45.164Z,1264
2022-10-03T11:05:25.611Z,1180
2022-10-03T11:06:06.160Z,1208
2022-10-03T11:06:46.595Z,1272
2022-10-03T11:07:27.105Z,1480
2022-10-03T11:08:07.615Z,1536
2022-10-03T11:08:48.167Z,1604
2022-10-03T11:09:28.599Z,1644
2022-10-03T11:10:09.212Z,1684
2022-10-03T11:10:50.307Z,1660
2022-10-03T11:15:37.409Z,1260
2022-10-03T11:16:18.930Z,1276
2022-10-03T11:16:58.906Z,1368
2022-10-03T11:17:39.633Z,1276
2022-10-03T11:18:20.366Z,1308
2022-10-03T11:23:05.536Z,1312
2022-10-03T11:23:46.113Z,1316
2022-10-03T11:24:27.064Z,1488
2022-10-03T11:25:08.827Z,1524
2022-10-03T11:25:49.278Z,1304
2022-10-03T11:26:29.821Z,1660
2022-10-03T11:27:10.314Z,1644
2022-10-03T11:31:15.477Z,1352
2022-10-03T11:31:55.833Z,1340
2022-10-03T11:32:36.315Z,1420
2022-10-03T11:33:17.131Z,1424
2022-10-03T11:33:59.043Z,1464
2022-10-03T11:37:26.306Z,1548
2022-10-03T11:38:07.052Z,1424
2022-10-03T11:38:47.653Z,1356
2022-10-03T11:39:28.105Z,1312
2022-10-03T11:40:08.572Z,1284
2022-10-03T11:40:49.106Z,1256
2022-10-03T11:41:29.760Z,1220
2022-10-03T11:42:10.230Z,1196
2022-10-03T11:46:15.299Z,1096
2022-10-03T11:46:55.723Z,1076
2022-10-03T11:47:36.243Z,1064
2022-10-03T11:48:16.724Z,1048
2022-10-03T11:48:57.269Z,1020
2022-10-03T11:49:37.743Z,1004
2022-10-03T11:50:18.276Z,992
2022-10-03T11:50:59.226Z,988
2022-10-03T11:51:39.371Z,984
2022-10-03T11:52:20.011Z,980
2022-10-03T11:53:00.585Z,1000
2022-10-03T12:32:09.533Z,1116
2022-10-03T12:32:49.969Z,1124
2022-10-03T12:33:30.448Z,1116
2022-10-03T12:34:11.031Z,1164
2022-10-03T12:34:51.474Z,1160
2022-10-03T12:35:31.952Z,1052
2022-10-03T12:36:12.446Z,1048
2022-10-03T12:36:53.133Z,1072
2022-10-03T12:45:17.155Z,1352
2022-10-03T12:45:57.445Z,1340
2022-10-03T12:46:37.891Z,1344
2022-10-03T12:47:27.578Z,1352
2022-10-03T12:47:59.010Z,1356
2022-10-03T12:48:39.497Z,1360
2022-10-03T12:49:19.987Z,1380
2022-10-03T12:50:00.597Z,1384
2022-10-03T12:50:41.207Z,1376
2022-10-03T12:51:21.547Z,1360
2022-10-03T12:58:46.972Z,1436
2022-10-03T12:59:27.515Z,1412
2022-10-03T13:00:07.977Z,1396
2022-10-03T13:00:48.547Z,1376
2022-10-03T13:01:29.002Z,1368
2022-10-03T13:02:09.478Z,1180
2022-10-03T13:03:30.426Z,1336
2022-10-03T13:04:10.871Z,1248
2022-10-03T13:04:51.374Z,1300
2022-10-03T13:05:31.958Z,1312
2022-10-03T13:11:36.657Z,1024
2022-10-03T13:12:17.203Z,980
2022-10-03T13:12:57.667Z,980
2022-10-03T13:13:38.155Z,976
2022-10-03T13:14:18.660Z,960
2022-10-03T13:14:59.308Z,944
2022-10-03T13:15:39.834Z,928
2022-10-03T13:16:20.295Z,920
2022-10-03T13:17:00.721Z,928
2022-10-03T13:17:41.195Z,932
2022-10-03T13:18:21.700Z,932
2022-10-03T13:25:06.774Z,1084
2022-10-03T13:25:47.263Z,1064
2022-10-03T13:26:27.711Z,1048
2022-10-03T13:27:08.224Z,1040
2022-10-03T13:27:48.784Z,1044
2022-10-03T13:28:29.313Z,1048
2022-10-03T13:29:09.799Z,1040
2022-10-03T13:29:50.281Z,1024
2022-10-03T13:30:30.817Z,1016
2022-10-03T13:31:11.336Z,1012
2022-10-03T13:31:51.810Z,1000
2022-10-03T13:38:36.907Z,948
2022-10-03T13:40:50.299Z,960
2022-10-03T13:41:30.626Z,944
2022-10-03T13:42:11.136Z,940
2022-10-03T13:42:51.602Z,932
2022-10-03T13:43:32.138Z,928
2022-10-03T13:44:12.587Z,924
2022-10-03T13:44:53.052Z,924
2022-10-03T13:45:33.609Z,1084
2022-10-03T13:46:14.063Z,1072
2022-10-03T13:47:35.052Z,1080
2022-10-03T13:52:38.637Z,960
2022-10-03T13:53:19.333Z,1048
2022-10-03T13:53:59.777Z,1100
2022-10-03T13:54:40.261Z,1076
2022-10-03T13:55:20.750Z,1068
2022-10-03T13:56:01.277Z,1040
2022-10-03T13:56:41.825Z,1072
2022-10-03T13:57:22.317Z,1064
2022-10-03T13:58:02.812Z,1148
2022-10-03T13:58:43.300Z,1128
2022-10-03T13:59:23.800Z,1164
2022-10-03T14:06:08.681Z,1208
2022-10-03T14:06:49.131Z,1212
2022-10-03T14:07:29.606Z,1192
2022-10-03T14:08:10.118Z,1172
2022-10-03T14:08:50.664Z,1148
2022-10-03T14:09:31.104Z,1128
2022-10-03T14:10:11.624Z,1112
2022-10-03T14:10:52.052Z,1020
2022-10-03T14:11:32.561Z,1096
2022-10-03T14:12:13.073Z,892
2022-10-03T14:12:55.987Z,880
2022-10-03T14:16:58.716Z,864
2022-10-03T14:17:39.171Z,864
2022-10-03T14:18:19.666Z,848
2022-10-03T14:19:00.165Z,808
2022-10-03T14:19:40.696Z,796
2022-10-03T14:20:21.154Z,796
2022-10-03T14:21:01.630Z,788
2022-10-03T14:21:42.540Z,796
2022-10-03T14:22:22.607Z,824
2022-10-03T14:23:03.092Z,848
2022-10-03T14:23:43.597Z,852
2022-10-03T14:30:28.555Z,864
2022-10-03T14:31:09.083Z,900
2022-10-03T14:31:52.483Z,912
2022-10-03T14:32:46.625Z,936
2022-10-03T14:33:10.516Z,960
2022-10-03T14:33:50.996Z,968
2022-10-03T14:34:31.498Z,980
2022-10-03T14:35:12.000Z,996
2022-10-03T14:35:52.447Z,1008
2022-10-03T14:36:32.978Z,1004
2022-10-03T14:37:13.493Z,980
2022-10-03T14:44:38.858Z,1296
2022-10-03T14:45:19.375Z,1348
2022-10-03T14:45:59.924Z,1112
2022-10-03T14:46:40.367Z,1024
2022-10-03T14:47:20.875Z,1088
2022-10-03T14:48:01.336Z,1000
2022-10-03T14:48:41.793Z,1008
2022-10-03T14:49:47.363Z,928
2022-10-03T14:50:02.795Z,952
2022-10-03T14:50:43.346Z,988
2022-10-03T14:58:11.294Z,788
2022-10-03T14:58:49.166Z,772
2022-10-03T14:59:29.708Z,768
2022-10-03T15:00:10.137Z,772
2022-10-03T15:00:50.667Z,780
2022-10-03T15:01:31.106Z,748
2022-10-03T15:02:11.693Z,740
2022-10-03T15:02:52.217Z,740
2022-10-03T15:03:32.704Z,728
2022-10-03T15:04:13.123Z,728
2022-10-03T15:04:53.611Z,728
2022-10-03T15:11:38.885Z,704
2022-10-03T15:12:19.024Z,696
2022-10-03T15:12:59.487Z,688
2022-10-03T15:13:39.948Z,680
2022-10-03T15:14:20.451Z,668
2022-10-03T15:15:00.934Z,656
2022-10-03T15:15:41.467Z,644
2022-10-03T15:16:22.025Z,640
2022-10-03T15:17:02.385Z,628
2022-10-03T15:17:42.865Z,628
2022-10-03T15:18:23.375Z,616
2022-10-03T15:25:48.711Z,516
2022-10-03T15:26:29.212Z,500
2022-10-03T15:27:09.717Z,488
2022-10-03T15:27:50.194Z,472
2022-10-03T15:28:30.700Z,456
2022-10-03T15:29:11.164Z,440
2022-10-03T15:29:51.594Z,432
2022-10-03T15:30:32.313Z,424
2022-10-03T15:31:12.683Z,416
2022-10-03T15:31:53.156Z,412
2022-10-03T15:32:33.559Z,416
2022-10-03T15:39:18.472Z,428
2022-10-03T15:39:58.852Z,432
2022-10-03T15:40:39.363Z,432
2022-10-03T15:41:19.863Z,432
2022-10-03T15:42:00.319Z,436
2022-10-03T15:42:40.839Z,444
2022-10-03T15:43:21.334Z,448
2022-10-03T15:44:01.831Z,448
2022-10-03T15:44:42.302Z,448
2022-10-03T15:45:22.763Z,444
2022-10-03T15:46:03.298Z,436
2022-10-03T15:53:36.351Z,352
2022-10-03T15:54:09.034Z,348
2022-10-03T15:54:49.942Z,340
2022-10-03T15:55:31.111Z,332
2022-10-03T15:56:11.763Z,328
2022-10-03T15:56:52.281Z,316
2022-10-03T15:57:32.858Z,312
2022-10-03T15:58:13.334Z,300
2022-10-03T15:58:53.765Z,296
2022-10-03T16:05:38.724Z,324
2022-10-03T16:06:19.182Z,320
2022-10-03T16:06:59.668Z,316
2022-10-03T16:07:40.153Z,312
2022-10-03T16:08:20.659Z,308
2022-10-03T16:09:01.153Z,300
2022-10-03T16:09:41.647Z,292
2022-10-03T16:10:22.111Z,284
2022-10-03T16:11:02.634Z,276
2022-10-03T16:11:43.271Z,272
2022-10-03T16:12:23.553Z,276
2022-10-03T16:19:08.566Z,276
2022-10-03T16:19:49.032Z,272
2022-10-03T16:20:29.518Z,268
2022-10-03T16:21:10.058Z,264
2022-10-03T16:21:50.544Z,256
2022-10-03T16:22:31.047Z,252
2022-10-03T16:23:11.565Z,248
2022-10-03T16:23:52.071Z,236
2022-10-03T16:24:32.563Z,232
2022-10-03T16:25:16.048Z,220
2022-10-03T16:25:53.546Z,212
2022-10-03T16:32:38.523Z,156
2022-10-03T16:33:19.023Z,148
2022-10-03T16:33:59.495Z,144
2022-10-03T16:34:40.027Z,140
2022-10-03T16:35:20.510Z,136
2022-10-03T16:36:00.969Z,136
2022-10-03T16:36:41.452Z,132
2022-10-03T16:37:21.945Z,132
2022-10-03T16:38:02.452Z,132
2022-10-03T16:38:42.933Z,136
2022-10-03T16:39:23.470Z,132
2022-10-03T16:46:48.904Z,92
2022-10-03T16:47:29.369Z,88
2022-10-03T16:50:43.771Z,76
2022-10-03T16:51:24.105Z,72
2022-10-03T16:52:04.618Z,76
2022-10-03T16:52:45.111Z,72
2022-10-03T16:53:25.568Z,72
2022-10-03T16:54:06.046Z,64
2022-10-03T16:54:46.623Z,64
2022-10-03T16:55:27.054Z,60
2022-10-03T16:56:07.584Z,56
2022-10-03T16:56:48.061Z,52
2022-10-03T16:57:28.526Z,48
2022-10-03T17:04:13.452Z,28
2022-10-03T17:04:53.923Z,24
2022-10-03T17:05:34.436Z,24
2022-10-03T17:06:15.030Z,24
2022-10-03T17:06:55.454Z,24
2022-10-03T17:07:35.918Z,20
2022-10-03T17:08:37.160Z,16
2022-10-03T17:08:56.868Z,16
2022-10-03T17:09:37.342Z,16
2022-10-03T17:10:17.837Z,16
2022-10-03T17:10:58.329Z,12
2022-10-03T17:18:25.696Z,4
2022-10-03T17:19:04.253Z,4
2022-10-03T17:19:44.753Z,4
2022-10-03T17:20:25.248Z,0
2022-10-03T17:21:05.717Z,4
2022-10-03T17:21:46.177Z,4
2022-10-03T17:22:26.681Z,4
2022-10-03T17:23:07.140Z,4
2022-10-03T17:23:47.611Z,0
2022-10-03T17:24:28.031Z,0
2022-10-03T17:25:08.509Z,0
2022-10-03T17:31:53.503Z,0
2022-10-03T17:32:33.929Z,0
2022-10-03T17:33:14.439Z,0
2022-10-03T17:33:54.923Z,0
2022-10-03T17:34:35.388Z,0
2022-10-03T17:35:15.928Z,0
2022-10-03T17:35:56.436Z,0
2022-10-03T17:36:36.920Z,0
2022-10-03T17:37:17.465Z,0
2022-10-03T17:37:57.886Z,0
2022-10-03T17:38:49.210Z,0
2022-10-03T17:46:03.824Z,0
2022-10-03T17:46:44.281Z,0
2022-10-03T17:47:24.746Z,0
2022-10-03T17:48:05.247Z,0
2022-10-03T17:48:45.708Z,0
2022-10-03T17:49:26.197Z,0
2022-10-03T17:50:06.675Z,0
2022-10-03T17:50:47.147Z,0
2022-10-03T17:51:27.655Z,0
2022-10-03T17:52:08.160Z,0
2022-10-03T18:33:59.351Z,0
2022-10-03T18:34:39.657Z,0
2022-10-03T18:35:20.103Z,0
2022-10-03T18:36:00.596Z,0
2022-10-03T18:36:41.061Z,0
2022-10-03T18:37:21.531Z,0
2022-10-03T18:38:02.024Z,0
2022-10-03T18:38:42.500Z,0
2022-10-03T18:39:22.943Z,0
2022-10-03T18:40:03.411Z,0
2022-10-03T18:40:43.962Z,0
2022-10-03T18:48:09.209Z,0
2022-10-03T18:49:03.192Z,0
2022-10-03T18:49:33.797Z,0
2022-10-03T18:50:10.689Z,0
2022-10-03T18:50:51.167Z,0
2022-10-03T18:51:31.751Z,0
2022-10-03T18:52:12.116Z,0
2022-10-03T18:52:52.553Z,0
2022-10-03T18:53:33.080Z,0
2022-10-03T18:54:13.593Z,0
2022-10-03T18:54:54.070Z,0
2022-10-03T19:01:39.269Z,0
2022-10-03T19:02:19.597Z,0
2022-10-03T19:02:59.991Z,0
2022-10-03T19:03:40.490Z,0
2022-10-03T19:04:21.009Z,0
2022-10-03T19:05:01.549Z,0
2022-10-03T19:05:41.975Z,0
2022-10-03T19:06:22.471Z,0
2022-10-03T19:07:02.990Z,0
2022-10-03T19:07:43.456Z,0
2022-10-03T19:08:23.942Z,0
2022-10-03T19:15:08.859Z,0
2022-10-03T19:15:49.367Z,0
2022-10-03T19:16:29.909Z,0
2022-10-03T19:17:10.336Z,0
2022-10-03T19:17:50.831Z,0
2022-10-03T19:18:31.334Z,0
2022-10-03T19:19:11.872Z,0
2022-10-03T19:19:55.321Z,0
2022-10-03T19:20:32.822Z,0
2022-10-03T19:21:13.282Z,0
2022-10-03T19:21:53.789Z,0
2022-10-03T19:29:19.135Z,0
2022-10-03T19:29:59.663Z,0
2022-10-03T19:30:40.188Z,0
2022-10-03T19:31:20.666Z,0
2022-10-03T19:32:01.149Z,0
2022-10-03T19:32:41.631Z,0
2022-10-03T19:33:22.080Z,0
2022-10-03T19:34:02.550Z,0
2022-10-03T19:34:43.011Z,0
2022-10-03T19:35:23.515Z,0
2022-10-03T19:44:35.700Z,0
2022-10-03T19:45:32.616Z,0
2022-10-03T19:47:23.979Z,0
2022-10-03T19:48:04.430Z,0
2022-10-03T19:48:44.931Z,0
2022-10-03T19:49:25.393Z,0
2022-10-03T19:50:05.855Z,0
2022-10-03T19:50:46.337Z,0
2022-10-03T19:51:26.812Z,0